createdAt,value
2023-04-27T00:01:54.647Z,9.10
2023-04-27T00:06:19.790Z,8.10
2023-04-27T00:10:47.693Z,11.30
2023-04-27T00:15:14.249Z,9.90
2023-04-27T00:19:55.334Z,10.10
2023-04-27T00:24:10.051Z,10.10
2023-04-27T00:28:17.895Z,10.90
2023-04-27T00:32:52.506Z,10.20
2023-04-27T00:37:12.351Z,11.00
2023-04-27T00:41:42.880Z,11.30
2023-04-27T00:46:07.077Z,13.90
2023-04-27T00:50:24.550Z,10.40
2023-04-27T00:54:33.156Z,9.40
2023-04-27T00:58:52.921Z,10.60
2023-04-27T01:02:57.592Z,11.80
2023-04-27T01:07:07.075Z,9.30
2023-04-27T01:11:38.963Z,8.20
2023-04-27T01:15:44.834Z,7.50
2023-04-27T01:19:51.497Z,9.00
2023-04-27T01:24:35.212Z,9.10
2023-04-27T01:29:12.289Z,9.40
2023-04-27T01:33:17.053Z,9.40
2023-04-27T01:38:01.719Z,6.50
2023-04-27T01:49:18.627Z,9.80
2023-04-27T01:54:03.358Z,8.30
2023-04-27T01:58:47.437Z,7.80
2023-04-27T02:03:26.610Z,8.40
2023-04-27T02:08:10.565Z,5.50
2023-04-27T02:12:51.435Z,9.20
2023-04-27T02:17:02.873Z,7.90
2023-04-27T02:21:07.512Z,12.70
2023-04-27T02:25:33.820Z,6.10
2023-04-27T02:29:57.459Z,6.20
2023-04-27T02:34:24.886Z,6.30
2023-04-27T02:38:34.898Z,9.40
2023-04-27T02:43:14.826Z,8.20
2023-04-27T02:47:40.141Z,8.80
2023-04-27T02:52:19.589Z,6.00
2023-04-27T02:56:27.421Z,11.10
2023-04-27T03:01:11.612Z,5.50
2023-04-27T03:05:45.325Z,6.40
2023-04-27T03:10:10.406Z,8.90
2023-04-27T03:14:54.844Z,5.40
2023-04-27T03:19:22.800Z,6.20
2023-04-27T03:23:46.755Z,6.40
2023-04-27T03:28:11.279Z,7.20
2023-04-27T03:32:37.364Z,6.20
2023-04-27T03:37:22.698Z,6.20
2023-04-27T03:41:50.254Z,7.10
2023-04-27T03:46:35.312Z,9.40
2023-04-27T03:51:20.334Z,8.40
2023-04-27T03:55:48.715Z,6.60
2023-04-27T04:00:29.913Z,6.00
2023-04-27T04:04:35.482Z,8.70
2023-04-27T04:08:48.561Z,5.60
2023-04-27T04:12:56.488Z,7.10
2023-04-27T04:17:21.129Z,9.00
2023-04-27T04:21:26.452Z,9.00
2023-04-27T04:25:45.128Z,8.90
2023-04-27T04:29:54.851Z,9.00
2023-04-27T04:34:22.929Z,11.80
2023-04-27T04:38:49.698Z,16.20
2023-04-27T04:43:10.986Z,17.70
2023-04-27T04:47:54.745Z,13.70
2023-04-27T04:56:30.125Z,14.90
2023-04-27T05:00:56.513Z,13.40
2023-04-27T05:05:02.566Z,12.10
2023-04-27T05:09:29.339Z,11.00
2023-04-27T05:13:41.069Z,11.10
2023-04-27T05:17:58.070Z,10.60
2023-04-27T05:22:07.454Z,10.30
2023-04-27T05:31:00.144Z,6.80
2023-04-27T05:35:40.773Z,9.20
2023-04-27T05:40:04.693Z,8.90
2023-04-27T05:44:32.864Z,9.00
2023-04-27T05:49:12.009Z,10.30
2023-04-27T05:53:55.875Z,9.50
2023-04-27T05:58:41.915Z,9.70
2023-04-27T06:02:53.055Z,8.80
2023-04-27T06:06:59.447Z,9.90
2023-04-27T06:11:03.620Z,12.80
2023-04-27T06:15:14.124Z,9.10
2023-04-27T06:19:26.362Z,12.30
2023-04-27T06:23:40.607Z,9.10
2023-04-27T06:27:47.098Z,13.10
2023-04-27T06:31:41.272Z,7.40
2023-04-27T06:35:44.591Z,9.90
2023-04-27T06:39:33.255Z,8.30
2023-04-27T06:43:46.728Z,10.00
2023-04-27T06:47:54.798Z,9.90
2023-04-27T06:51:59.181Z,9.50
2023-04-27T06:55:53.512Z,4.30
2023-04-27T06:59:34.523Z,7.70
2023-04-27T07:03:35.755Z,5.90
2023-04-27T07:07:26.872Z,6.90
2023-04-27T07:11:21.805Z,8.50
2023-04-27T07:15:34.693Z,5.00
2023-04-27T07:19:40.187Z,5.40
2023-04-27T07:23:27.318Z,6.90
2023-04-27T07:26:52.644Z,6.00
2023-04-27T07:30:25.061Z,5.30
2023-04-27T07:33:50.246Z,6.60
2023-04-27T07:37:21.369Z,5.10
2023-04-27T07:41:18.944Z,6.80
2023-04-27T07:45:03.867Z,4.60
2023-04-27T07:48:45.499Z,5.60
2023-04-27T07:52:39.858Z,5.50
2023-04-27T07:56:37.819Z,7.70
2023-04-27T08:00:06.580Z,5.70
2023-04-27T08:03:30.658Z,6.00
2023-04-27T08:06:55.955Z,4.70
2023-04-27T08:10:43.722Z,7.40
2023-04-27T08:14:21.390Z,7.10
2023-04-27T08:18:08.466Z,5.70
2023-04-27T08:21:53.951Z,6.80
2023-04-27T08:25:25.390Z,4.80
2023-04-27T08:28:54.146Z,4.90
2023-04-27T08:32:16.454Z,5.70
2023-04-27T08:35:49.549Z,5.90
2023-04-27T08:39:20.080Z,5.30
2023-04-27T08:43:00.596Z,6.10
2023-04-27T08:46:28.688Z,7.20
2023-04-27T08:49:56.387Z,6.10
2023-04-27T08:57:01.713Z,6.50
2023-04-27T09:00:33.128Z,5.20
2023-04-27T09:04:02.354Z,4.00
2023-04-27T09:07:37.836Z,6.90
2023-04-27T09:11:24.529Z,4.30
2023-04-27T09:15:17.757Z,5.40
2023-04-27T09:19:19.528Z,5.80
2023-04-27T09:22:52.989Z,7.60
2023-04-27T09:26:33.301Z,5.80
2023-04-27T09:30:22.335Z,5.80
2023-04-27T09:33:56.812Z,6.60
2023-04-27T09:37:39.983Z,7.20
2023-04-27T09:41:22.296Z,3.90
2023-04-27T09:44:46.383Z,5.60
2023-04-27T09:48:11.565Z,6.20
2023-04-27T09:51:49.819Z,4.10
2023-04-27T09:55:29.664Z,4.90
2023-04-27T09:59:44.514Z,5.00
2023-04-27T10:03:51.566Z,5.20
2023-04-27T10:07:31.474Z,5.10
2023-04-27T10:11:17.168Z,4.70
2023-04-27T10:14:48.489Z,7.90
2023-04-27T10:18:36.051Z,3.40
2023-04-27T10:22:17.210Z,4.80
2023-04-27T10:25:53.138Z,7.70
2023-04-27T10:29:22.390Z,7.00
2023-04-27T10:32:53.386Z,7.80
2023-04-27T10:36:25.505Z,6.20
2023-04-27T10:39:52.841Z,4.40
2023-04-27T10:43:38.575Z,5.40
2023-04-27T10:47:33.693Z,6.70
2023-04-27T10:51:06.623Z,7.30
2023-04-27T10:54:40.477Z,7.40
2023-04-27T10:58:15.333Z,6.10
2023-04-27T11:01:48.916Z,5.20
2023-04-27T11:11:51.454Z,4.60
2023-04-27T11:15:20.024Z,6.20
2023-04-27T11:18:44.039Z,5.00
2023-04-27T11:22:28.689Z,4.00
2023-04-27T11:25:55.259Z,5.60
2023-04-27T11:29:40.578Z,3.80
2023-04-27T11:33:14.729Z,4.80
2023-04-27T11:36:45.345Z,5.20
2023-04-27T11:40:34.576Z,6.00
2023-04-27T11:44:12.304Z,5.70
2023-04-27T11:47:43.378Z,6.90
2023-04-27T11:51:18.119Z,8.20
2023-04-27T11:54:49.957Z,12.20
2023-04-27T11:58:17.231Z,5.40
2023-04-27T12:05:30.905Z,7.50
2023-04-27T12:08:59.664Z,3.40
2023-04-27T12:12:31.782Z,5.30
2023-04-27T12:16:17.997Z,4.90
2023-04-27T12:19:51.925Z,7.20
2023-04-27T12:23:17.450Z,6.40
2023-04-27T12:26:49.881Z,6.60
2023-04-27T12:30:27.412Z,7.10
2023-04-27T12:34:01.245Z,6.00
2023-04-27T12:37:27.251Z,6.30
2023-04-27T12:40:51.046Z,6.00
2023-04-27T12:44:32.680Z,6.40
2023-04-27T12:48:25.100Z,7.70
2023-04-27T12:52:05.727Z,6.50
2023-04-27T12:56:11.728Z,6.90
2023-04-27T13:00:01.736Z,4.40
2023-04-27T13:03:48.989Z,5.80
2023-04-27T13:07:12.445Z,5.90
2023-04-27T13:10:42.555Z,5.70
2023-04-27T13:14:13.750Z,4.60
2023-04-27T13:17:38.616Z,4.90
2023-04-27T13:21:09.773Z,6.30
2023-04-27T13:25:03.487Z,7.40
2023-04-27T13:28:36.775Z,5.40
2023-04-27T13:32:05.365Z,5.80
2023-04-27T13:35:30.483Z,7.60
2023-04-27T13:38:59.060Z,5.40
2023-04-27T13:42:30.474Z,4.20
2023-04-27T13:46:00.974Z,7.50
2023-04-27T13:49:28.277Z,4.90
2023-04-27T13:53:16.647Z,4.80
2023-04-27T13:56:38.978Z,5.30
2023-04-27T14:00:37.751Z,3.70
2023-04-27T14:04:06.618Z,5.60
2023-04-27T14:07:39.094Z,4.70
2023-04-27T14:11:07.435Z,5.90
2023-04-27T14:14:37.037Z,5.80
2023-04-27T14:18:08.492Z,4.60
2023-04-27T14:21:35.719Z,6.80
2023-04-27T14:25:03.087Z,6.00
2023-04-27T14:28:33.619Z,4.70
2023-04-27T14:32:06.366Z,5.40
2023-04-27T14:35:52.247Z,7.10
2023-04-27T14:39:24.253Z,5.50
2023-04-27T14:42:56.668Z,8.00
2023-04-27T14:46:36.580Z,5.40
2023-04-27T14:50:05.483Z,7.50
2023-04-27T14:53:38.044Z,5.70
2023-04-27T14:57:13.432Z,4.00
2023-04-27T15:00:39.817Z,5.60
2023-04-27T15:04:16.225Z,5.20
2023-04-27T15:08:01.710Z,5.70
2023-04-27T15:11:28.469Z,4.90
2023-04-27T15:14:56.049Z,4.50
2023-04-27T15:18:46.741Z,5.30
2023-04-27T15:22:10.581Z,6.10
2023-04-27T15:25:44.206Z,4.80
2023-04-27T15:29:18.006Z,5.70
2023-04-27T15:32:52.021Z,5.80
2023-04-27T15:36:42.302Z,4.50
2023-04-27T15:40:10.311Z,5.40
2023-04-27T15:43:43.688Z,6.50
2023-04-27T15:47:10.208Z,5.40
2023-04-27T15:50:44.938Z,3.70
2023-04-27T15:55:08.234Z,4.80
2023-04-27T15:58:41.061Z,4.70
2023-04-27T16:02:30.436Z,6.00
2023-04-27T16:05:59.415Z,5.50
2023-04-27T16:10:06.939Z,5.80
2023-04-27T16:13:55.165Z,5.50
2023-04-27T16:17:26.826Z,6.20
2023-04-27T16:21:20.496Z,4.80
2023-04-27T16:24:51.669Z,6.30
2023-04-27T16:38:02.145Z,7.20
2023-04-27T16:42:29.384Z,6.80
2023-04-27T16:46:40.643Z,7.10
2023-04-27T16:50:34.661Z,11.60
2023-04-27T16:54:38.795Z,7.00
2023-04-27T16:59:25.488Z,6.30
2023-04-27T17:03:53.056Z,7.60
2023-04-27T17:07:57.312Z,5.90
2023-04-27T17:12:18.104Z,8.20
2023-04-27T17:16:27.164Z,7.40
2023-04-27T17:20:58.766Z,6.50
2023-04-27T17:25:27.259Z,5.90
2023-04-27T17:29:31.245Z,6.80
2023-04-27T17:34:19.053Z,6.50
2023-04-27T17:38:44.092Z,6.10
2023-04-27T17:43:08.815Z,6.30
2023-04-27T17:47:33.698Z,8.60
2023-04-27T17:51:50.558Z,9.20
2023-04-27T17:56:01.945Z,9.20
2023-04-27T18:00:33.715Z,8.70
2023-04-27T18:04:50.271Z,11.80
2023-04-27T18:09:35.064Z,12.90
2023-04-27T18:14:15.288Z,12.10
2023-04-27T18:18:42.910Z,14.10
2023-04-27T18:22:54.925Z,13.00
2023-04-27T18:27:39.741Z,11.00
2023-04-27T18:31:45.781Z,15.10
2023-04-27T18:36:07.260Z,13.60
2023-04-27T18:40:31.604Z,13.80
2023-04-27T18:45:06.434Z,17.40
2023-04-27T18:50:34.914Z,42.90
2023-04-27T18:54:59.257Z,14.80
2023-04-27T18:59:07.914Z,14.80
2023-04-27T19:03:34.681Z,11.10
2023-04-27T19:07:57.274Z,17.10
2023-04-27T19:12:31.732Z,13.60
2023-04-27T19:16:50.992Z,13.90
2023-04-27T19:20:56.250Z,18.20
2023-04-27T19:25:18.998Z,19.50
2023-04-27T19:30:01.581Z,21.20
2023-04-27T19:34:44.681Z,19.40
2023-04-27T19:39:08.419Z,19.80
2023-04-27T19:43:51.899Z,27.90
2023-04-27T19:48:02.337Z,28.20
2023-04-27T19:52:25.422Z,27.30
2023-04-27T19:56:45.649Z,27.50
2023-04-27T20:01:23.267Z,25.60
2023-04-27T20:05:50.275Z,28.40
2023-04-27T20:10:17.714Z,23.50
2023-04-27T20:14:27.801Z,19.60
2023-04-27T20:18:51.279Z,14.70
2023-04-27T20:23:15.470Z,19.50
2023-04-27T20:31:42.871Z,21.10
2023-04-27T20:35:58.843Z,14.10
2023-04-27T20:40:25.729Z,17.40
2023-04-27T20:44:29.053Z,21.40
2023-04-27T20:48:35.614Z,20.80
2023-04-27T20:52:46.076Z,17.40
2023-04-27T20:57:14.631Z,21.70
2023-04-27T21:01:39.133Z,17.50
2023-04-27T21:06:22.735Z,21.50
2023-04-27T21:10:47.110Z,19.90
2023-04-27T21:14:49.686Z,25.70
2023-04-27T21:19:35.269Z,21.10
2023-04-27T21:24:16.136Z,17.40
2023-04-27T21:28:59.044Z,11.20
2023-04-27T21:33:43.045Z,13.10
2023-04-27T21:38:01.656Z,18.40
2023-04-27T21:42:08.346Z,13.20
2023-04-27T21:46:51.880Z,14.50
2023-04-27T21:50:59.710Z,15.50
2023-04-27T21:55:43.744Z,18.80
2023-04-27T22:00:26.493Z,16.10
2023-04-27T22:04:59.537Z,15.60
2023-04-27T22:09:22.293Z,15.60
2023-04-27T22:14:05.251Z,16.20
2023-04-27T22:18:11.730Z,11.80
2023-04-27T22:27:01.011Z,9.80
2023-04-27T22:31:24.889Z,7.10
2023-04-27T22:35:42.850Z,14.80
2023-04-27T22:40:05.917Z,11.60
2023-04-27T22:44:29.431Z,13.70
2023-04-27T22:48:55.875Z,15.90
2023-04-27T22:53:18.693Z,11.00
2023-04-27T22:57:44.812Z,13.40
2023-04-27T23:02:15.381Z,9.50
2023-04-27T23:06:53.158Z,9.40
2023-04-27T23:11:24.057Z,11.20
2023-04-27T23:20:24.045Z,7.00
2023-04-27T23:24:33.463Z,8.60
2023-04-27T23:28:57.234Z,9.80
2023-04-27T23:41:47.675Z,10.80
2023-04-27T23:46:29.983Z,9.90
2023-04-27T23:51:12.684Z,10.70
2023-04-27T23:55:39.595Z,9.60
